WET,Max TemperatureF,Mean TemperatureF,Min TemperatureF,Max Dew PointF,MeanDew PointF,Min DewpointF,Max Humidity, Mean Humidity, Min Humidity, Max Sea Level PressureIn, Mean Sea Level PressureIn, Min Sea Level PressureIn, Max VisibilityMiles, Mean VisibilityMiles, Min VisibilityMiles, Max Wind SpeedMPH, Mean Wind SpeedMPH, Max Gust SpeedMPH,PrecipitationIn, CloudCover, Events, WindDirDegrees
2011-10-1,,,,,,,,,,,,,,,,,,,0.00,,,-1
2011-10-2,,,,,,,,,,,,,,,,,,,0.00,,,-1
2011-10-3,89,78,68,45,39,36,33,24,15,30.33,30.28,30.24,6,6,6,23,6,,0.00,3,,268
2011-10-4,86,78,71,54,47,41,53,34,20,30.30,30.24,30.15,6,6,6,15,3,,0.00,2,,134
2011-10-5,84,75,66,55,52,45,68,52,25,30.24,30.20,30.09,6,6,6,16,4,,0.00,1,Thunderstorm,100
2011-10-6,78,68,59,55,46,39,72,47,24,30.27,30.22,30.15,6,6,6,9,3,,0.00,1,,95
2011-10-7,82,71,60,52,39,23,68,36,11,30.27,30.20,30.09,6,6,6,9,3,,0.00,1,,253
2011-10-8,80,68,59,36,31,27,34,25,18,30.21,30.17,30.15,6,6,6,8,4,,0.00,1,,264
2011-10-9,86,72,59,34,28,19,34,18,9,30.30,30.23,30.18,6,6,6,6,2,,0.00,1,,147
2011-10-10,82,68,55,39,33,27,41,24,13,30.39,30.32,30.27,6,6,6,5,3,,0.00,1,,103
2011-10-11,82,70,57,50,35,30,41,27,16,30.42,30.33,30.24,6,6,6,6,2,,0.00,1,,197
2011-10-12,82,68,55,30,28,27,36,20,13,30.33,30.25,30.18,6,6,6,5,2,,0.00,1,,237
2011-10-13,82,70,57,37,31,23,36,24,11,30.30,30.22,30.15,6,6,6,6,1,,0.00,2,,310
2011-10-14,82,70,59,37,33,27,39,25,13,30.21,30.16,30.09,6,6,6,24,4,,0.00,1,,332
2011-10-15,82,70,59,37,32,27,37,25,14,30.21,30.15,30.09,6,6,6,9,4,,0.00,1,,263
2011-10-16,82,68,55,37,30,27,35,22,14,30.27,30.20,30.12,6,6,6,8,3,,0.00,2,,319
2011-10-17,84,72,59,36,31,27,39,23,14,30.27,30.20,30.15,6,6,6,10,3,,0.00,2,,165
2011-10-18,77,68,59,34,31,28,34,25,19,30.24,30.19,30.12,6,6,6,10,3,,0.00,5,,136
2011-10-19,66,60,53,32,30,28,38,32,26,30.27,30.23,30.21,,,,4,2,,0.00,,,214
2011-10-20,,,,,,,,,,,,,,,,,,,0.00,,,-1
2011-10-21,86,72,59,48,41,16,67,47,15,30.12,30.10,30.06,6,6,6,9,3,,0.00,3,Rain,282
2011-10-22,71,64,57,52,46,39,77,60,31,30.12,30.09,30.04,6,6,6,18,4,,0.00,2,Thunderstorm,304
2011-10-23,60,58,55,54,52,48,94,83,68,30.12,30.08,30.04,6,6,4,6,1,,0.00,4,Rain,330
2011-10-24,71,60,48,52,44,36,94,65,27,30.04,29.96,29.86,6,6,6,5,1,,0.00,3,,250
2011-10-25,73,64,55,50,38,25,82,44,16,30.01,29.90,29.83,6,6,6,15,5,21,0.00,2,,255
2011-10-26,77,64,51,48,43,32,76,50,21,30.09,30.03,29.98,6,6,6,10,3,,0.00,1,,238
2011-10-27,77,64,50,45,40,30,71,43,22,30.04,29.99,29.89,6,6,4,33,8,45,0.00,3,,305
2011-10-28,75,62,48,32,22,0,40,24,5,30.09,30.03,29.98,6,6,6,21,11,,0.00,1,,292
2011-10-29,71,58,44,36,29,21,53,32,22,30.15,30.10,30.06,,,,8,2,,0.00,,,263
2011-10-30,73,60,48,36,34,32,62,37,22,30.21,30.12,30.06,,,,9,1,,0.00,,,158
2011-10-31,75,63,51,36,34,30,54,34,19,30.18,30.12,30.06,6,6,6,9,2,,0.00,2,,157